Time;durP1;ratioP1;P1;durP2;ratioP2;P2;SDS_P1;SDS_P2;PMS_P1;PMS_P2;Temp;Humidity;BMP_temperature;BMP_pressure;BME280_temperature;BME280_humidity;BME280_pressure;Samples;Min_cycle;Max_cycle;Signal;HPM_P1;HPM_P2
2022/06/16 00:02:51;;;;;;;10.38;5.25;;;;;;;14.23;72.80;101118.06;6053939;28;20362;-67
2022/06/16 00:05:48;;;;;;;8.25;4.55;;;;;;;14.11;74.40;101132.66;6066024;28;20048;-68
2022/06/16 00:08:43;;;;;;;10.52;4.93;;;;;;;14.77;73.38;101127.47;6055595;28;20046;-68
2022/06/16 00:11:38;;;;;;;8.07;4.50;;;;;;;14.48;71.71;101113.72;6053837;28;20412;-68
2022/06/16 00:14:33;;;;;;;10.20;3.90;;;;;;;14.00;73.03;101117.78;6053928;28;20022;-67
2022/06/16 00:17:29;;;;;;;8.73;4.57;;;;;;;14.01;74.06;101124.78;6055146;28;20283;-67
2022/06/16 00:20:25;;;;;;;8.63;4.27;;;;;;;14.51;71.16;101127.53;6053878;28;20030;-68
2022/06/16 00:23:20;;;;;;;9.02;4.03;;;;;;;13.96;73.16;101132.44;6054316;28;20033;-67
2022/06/16 00:26:18;;;;;;;8.32;4.10;;;;;;;13.92;74.79;101123.06;6054152;28;20068;-67
2022/06/16 00:29:14;;;;;;;9.90;4.00;;;;;;;14.15;72.83;101134.88;6055584;28;20537;-68
2022/06/16 00:32:09;;;;;;;7.77;4.00;;;;;;;14.11;73.58;101136.16;6051514;28;20040;-67
2022/06/16 00:35:06;;;;;;;11.00;4.37;;;;;;;13.81;74.84;101125.13;6054470;28;20845;-65
2022/06/16 00:38:01;;;;;;;10.25;4.32;;;;;;;13.85;74.32;101111.38;6052870;28;20056;-65
2022/06/16 00:40:56;;;;;;;5.23;3.37;;;;;;;13.51;75.58;101121.09;6052784;28;20037;-65
2022/06/16 00:43:52;;;;;;;7.47;3.93;;;;;;;13.23;76.57;101112.41;6053777;28;20022;-67
2022/06/16 00:46:47;;;;;;;7.73;3.97;;;;;;;13.61;76.46;101106.72;6051935;28;20269;-65
2022/06/16 00:49:44;;;;;;;6.87;3.67;;;;;;;13.61;75.23;101112.03;6056201;28;20029;-65
2022/06/16 00:52:40;;;;;;;10.65;3.63;;;;;;;13.25;77.05;101105.09;6051361;28;20038;-67
2022/06/16 00:55:36;;;;;;;10.00;3.85;;;;;;;13.26;77.46;101101.44;6053547;28;20081;-68
2022/06/16 00:58:32;;;;;;;7.78;3.67;;;;;;;13.31;77.02;101106.31;6069203;28;20034;-67
2022/06/16 01:01:27;;;;;;;9.13;4.00;;;;;;;12.99;77.72;101104.16;6053063;28;20495;-68
2022/06/16 01:07:41;;;;;;;6.88;4.13;;;;;;;13.33;77.64;101097.16;6052482;28;20117;-67
2022/06/16 01:10:43;;;;;;;6.68;3.67;;;;;;;13.30;76.67;101099.28;6061936;28;20044;-67
2022/06/16 01:13:45;;;;;;;5.80;3.70;;;;;;;13.31;77.15;101099.16;6059848;28;20046;-67
2022/06/16 01:16:45;;;;;;;9.48;4.03;;;;;;;13.09;76.81;101092.47;6051230;28;20120;-67
2022/06/16 01:20:05;;;;;;;9.73;3.65;;;;;;;12.80;77.69;101097.13;6068287;28;20042;-67
2022/06/16 01:23:01;;;;;;;6.53;4.03;;;;;;;12.67;78.90;101114.44;6053018;28;20519;-67
2022/06/16 01:26:07;;;;;;;11.07;3.97;;;;;;;12.65;78.65;101109.28;6059581;28;20037;-67
2022/06/16 01:29:08;;;;;;;8.73;4.15;;;;;;;12.74;78.50;101120.88;6053484;28;20033;-67
2022/06/16 01:32:30;;;;;;;8.27;4.20;;;;;;;12.52;79.48;101111.47;6051141;28;20040;-67
2022/06/16 01:35:49;;;;;;;6.57;3.70;;;;;;;12.74;79.02;101113.72;6064257;28;20109;-67
2022/06/16 01:39:11;;;;;;;7.70;3.88;;;;;;;12.60;79.03;101119.53;6060247;28;20059;-67
2022/06/16 01:42:14;;;;;;;7.03;3.72;;;;;;;12.66;78.29;101118.97;6049979;28;20539;-67
2022/06/16 01:45:24;;;;;;;6.70;3.53;;;;;;;12.81;77.39;101128.09;6051428;28;20596;-67
2022/06/16 01:48:20;;;;;;;6.15;3.83;;;;;;;12.70;78.62;101133.63;6052539;28;20452;-67
2022/06/16 01:51:42;;;;;;;8.15;4.30;;;;;;;12.59;79.03;101146.28;6050361;28;20034;-67
2022/06/16 01:54:44;;;;;;;5.57;3.75;;;;;;;12.67;78.92;101143.72;6048340;28;20050;-67
2022/06/16 01:57:45;;;;;;;9.93;4.45;;;;;;;12.84;78.68;101125.13;6060347;28;20054;-67
2022/06/16 02:00:41;;;;;;;7.15;3.40;;;;;;;13.18;77.23;101108.53;6066797;28;20697;-67
2022/06/16 02:03:39;;;;;;;9.75;3.40;;;;;;;13.00;76.90;101119.97;6051070;28;20029;-67
2022/06/16 02:06:38;;;;;;;10.40;3.90;;;;;;;12.77;77.10;101105.44;6058187;28;20062;-67
2022/06/16 02:09:39;;;;;;;7.13;3.35;;;;;;;12.86;77.60;101109.84;6060511;28;20541;-67
2022/06/16 02:16:06;;;;;;;6.20;3.45;;;;;;;12.53;78.78;101119.28;6064026;28;20049;-67
2022/06/16 02:19:04;;;;;;;8.40;3.88;;;;;;;12.70;79.75;101093.72;6051104;28;20042;-67
2022/06/16 02:22:01;;;;;;;8.48;3.47;;;;;;;13.44;76.49;101086.25;6051486;28;20504;-67
2022/06/16 02:24:57;;;;;;;6.72;3.30;;;;;;;13.65;74.58;101067.25;6065898;28;20057;-68
2022/06/16 02:27:52;;;;;;;7.13;3.50;;;;;;;13.49;73.73;101069.81;6052239;28;20397;-67
2022/06/16 02:31:17;;;;;;;7.03;3.00;;;;;;;13.82;73.63;101085.00;6050087;28;20026;-67
2022/06/16 02:34:27;;;;;;;5.10;2.85;;;;;;;13.61;73.08;101106.72;6054804;28;20299;-67
2022/06/16 02:37:31;;;;;;;6.97;4.07;;;;;;;13.22;74.94;101137.34;6047775;28;20045;-66
2022/06/16 02:40:57;;;;;;;7.03;3.53;;;;;;;13.02;75.82;101146.44;6084645;28;20499;-67
2022/06/16 02:44:06;;;;;;;4.97;2.72;;;;;;;12.67;77.68;101160.53;6057608;28;20034;-67
2022/06/16 02:47:09;;;;;;;6.28;3.55;;;;;;;12.30;79.25;101165.06;6057916;28;20043;-67
2022/06/16 02:50:05;;;;;;;6.35;2.95;;;;;;;12.27;79.96;101160.03;6050203;28;20034;-67
2022/06/16 02:53:10;;;;;;;8.80;3.28;;;;;;;12.55;79.08;101132.47;6068701;28;20030;-67
2022/06/16 02:56:12;;;;;;;6.75;3.30;;;;;;;12.71;78.18;101142.44;6069245;28;20037;-67
2022/06/16 02:59:33;;;;;;;7.38;3.35;;;;;;;12.30;78.80;101139.31;6053130;28;20083;-67
2022/06/16 03:02:29;;;;;;;11.32;3.38;;;;;;;12.32;78.60;101136.47;6044460;28;20117;-67
2022/06/16 03:05:24;;;;;;;7.18;3.45;;;;;;;12.47;78.99;101133.19;6051556;28;20524;-67
2022/06/16 03:08:22;;;;;;;8.85;3.70;;;;;;;12.37;78.54;101129.75;6050357;28;20118;-67
2022/06/16 03:11:17;;;;;;;8.98;3.30;;;;;;;12.43;78.35;101130.97;6050355;28;20045;-67
2022/06/16 03:14:12;;;;;;;4.90;3.27;;;;;;;12.76;77.07;101130.38;6050077;28;20033;-67
2022/06/16 03:17:09;;;;;;;6.40;3.43;;;;;;;12.61;77.17;101137.16;6049725;28;20449;-67
2022/06/16 03:20:04;;;;;;;6.50;3.60;;;;;;;12.45;78.59;101150.28;6051316;28;20595;-67
2022/06/16 03:23:00;;;;;;;5.53;3.13;;;;;;;12.50;78.82;101140.06;6050274;28;20038;-67
2022/06/16 03:25:55;;;;;;;6.60;3.27;;;;;;;12.58;78.74;101139.31;6049754;28;20105;-68
2022/06/16 03:28:50;;;;;;;6.43;3.10;;;;;;;12.55;78.38;101135.13;6050377;28;20481;-67
2022/06/16 03:31:47;;;;;;;6.45;3.60;;;;;;;12.40;79.21;101152.53;6048619;28;20076;-67
2022/06/16 03:34:42;;;;;;;5.07;3.23;;;;;;;12.10;79.59;101136.84;6061762;28;20516;-67
2022/06/16 03:37:40;;;;;;;8.03;3.63;;;;;;;12.38;79.30;101125.25;6053094;28;20287;-67
2022/06/16 03:40:36;;;;;;;8.68;3.58;;;;;;;12.64;77.80;101120.91;6055540;28;20041;-67
2022/06/16 03:43:31;;;;;;;8.60;3.75;;;;;;;12.53;78.15;101135.25;6050500;28;20033;-68
2022/06/16 03:46:26;;;;;;;9.00;3.47;;;;;;;12.64;78.16;101130.75;6050422;28;20029;-67
2022/06/16 03:49:22;;;;;;;6.80;3.38;;;;;;;12.71;77.96;101105.19;6049450;28;20624;-67
2022/06/16 03:52:17;;;;;;;7.70;3.20;;;;;;;13.38;76.63;101099.34;6059293;28;20045;-67
2022/06/16 03:55:12;;;;;;;6.27;3.10;;;;;;;13.33;74.70;101117.63;6049631;28;20045;-66
2022/06/16 03:58:09;;;;;;;6.38;3.47;;;;;;;13.20;74.72;101133.16;6056544;28;20323;-67
2022/06/16 04:01:05;;;;;;;6.07;3.17;;;;;;;12.84;76.44;101141.09;6054438;28;20037;-66
2022/06/16 04:04:00;;;;;;;7.90;3.10;;;;;;;12.68;77.63;101159.56;6061558;28;20041;-67
2022/06/16 04:06:55;;;;;;;5.90;3.33;;;;;;;12.54;78.65;101178.66;6049179;28;20448;-67
2022/06/16 04:09:50;;;;;;;6.50;3.60;;;;;;;12.61;80.22;101185.06;6050344;28;20069;-67
2022/06/16 04:12:46;;;;;;;6.70;3.80;;;;;;;12.51;79.19;101189.59;6048526;28;20033;-67
2022/06/16 04:15:41;;;;;;;8.20;3.43;;;;;;;12.45;79.49;101193.69;6053877;28;20038;-67
2022/06/16 04:18:37;;;;;;;6.15;3.60;;;;;;;12.66;79.58;101182.81;6049134;28;20070;-67
2022/06/16 04:21:32;;;;;;;5.13;3.03;;;;;;;12.88;77.13;101176.25;6051315;28;20041;-67
2022/06/16 04:24:27;;;;;;;5.93;3.13;;;;;;;12.67;78.07;101178.31;6052186;28;20038;-67
2022/06/16 04:27:23;;;;;;;8.05;3.40;;;;;;;12.75;77.99;101168.59;6053276;28;20041;-67
2022/06/16 04:30:18;;;;;;;7.53;3.20;;;;;;;12.90;77.80;101164.47;6052936;28;20124;-67
2022/06/16 04:33:13;;;;;;;9.10;3.50;;;;;;;12.95;77.95;101167.50;6053319;28;20034;-68
2022/06/16 04:36:09;;;;;;;7.93;3.40;;;;;;;12.86;77.35;101157.75;6052908;28;20323;-67
2022/06/16 04:39:05;;;;;;;7.38;3.08;;;;;;;12.99;77.73;101158.22;6051970;28;20034;-67
2022/06/16 04:42:00;;;;;;;7.90;3.40;;;;;;;13.41;76.38;101163.84;6039621;28;20497;-67
2022/06/16 04:44:56;;;;;;;6.50;3.10;;;;;;;13.82;73.58;101158.81;6053225;28;20117;-68
2022/06/16 04:47:51;;;;;;;8.67;3.67;;;;;;;13.69;73.99;101172.56;6052864;28;20029;-66
2022/06/16 04:50:46;;;;;;;6.93;3.50;;;;;;;13.62;74.74;101158.16;6051722;28;20359;-66
2022/06/16 04:53:42;;;;;;;5.20;3.20;;;;;;;13.61;74.76;101156.50;6058022;28;20107;-67
2022/06/16 04:56:37;;;;;;;6.20;3.22;;;;;;;13.41;74.86;101173.66;6052713;28;20022;-67
2022/06/16 04:59:32;;;;;;;8.07;3.10;;;;;;;13.20;76.53;101176.63;6052935;28;20555;-67
2022/06/16 05:02:28;;;;;;;8.33;3.23;;;;;;;13.23;77.62;101192.31;6051978;28;20385;-67
2022/06/16 05:05:23;;;;;;;6.97;3.40;;;;;;;13.07;78.44;101186.81;6052482;28;20101;-67
2022/06/16 05:08:19;;;;;;;7.18;3.80;;;;;;;12.99;78.89;101200.81;6052844;28;20045;-67
2022/06/16 05:11:15;;;;;;;7.30;3.22;;;;;;;13.04;79.21;101198.53;6051757;28;20593;-67
2022/06/16 05:14:10;;;;;;;7.65;3.70;;;;;;;13.34;77.97;101191.25;6052558;28;20038;-67
2022/06/16 05:17:06;;;;;;;7.00;3.60;;;;;;;13.64;76.79;101181.00;6052366;28;20385;-67
2022/06/16 05:20:02;;;;;;;8.48;3.85;;;;;;;13.71;76.86;101203.41;6052610;28;20025;-67
2022/06/16 05:22:57;;;;;;;6.60;3.45;;;;;;;13.81;77.01;101213.97;6055131;28;20114;-67
2022/06/16 05:25:52;;;;;;;8.68;3.90;;;;;;;14.10;75.62;101213.69;6052067;28;20034;-67
2022/06/16 05:28:48;;;;;;;9.10;3.83;;;;;;;14.40;74.99;101199.06;6051829;28;20057;-66
2022/06/16 05:31:43;;;;;;;6.00;3.43;;;;;;;14.83;71.87;101222.97;6054536;28;20061;-67
2022/06/16 05:34:38;;;;;;;8.10;3.70;;;;;;;14.93;71.51;101223.66;6052540;28;20633;-64
2022/06/16 05:37:34;;;;;;;6.73;3.53;;;;;;;15.07;70.23;101236.41;6055169;28;20289;-67
2022/06/16 05:40:29;;;;;;;7.72;3.40;;;;;;;15.47;69.61;101223.16;6057724;28;20647;-67
2022/06/16 05:43:25;;;;;;;9.30;3.50;;;;;;;16.47;65.14;101209.34;6051865;28;20096;-67
2022/06/16 05:46:21;;;;;;;7.80;3.78;;;;;;;16.50;65.04;101225.06;6051723;28;20029;-67
2022/06/16 05:49:18;;;;;;;8.73;3.40;;;;;;;16.77;63.15;101233.75;6051441;28;20029;-67
2022/06/16 05:52:18;;;;;;;10.85;3.42;;;;;;;16.44;64.39;101249.84;6052927;28;20480;-67
2022/06/16 05:55:14;;;;;;;8.88;3.80;;;;;;;16.62;64.66;101249.69;6051460;28;20057;-65
2022/06/16 05:58:10;;;;;;;6.43;3.33;;;;;;;16.40;64.32;101253.88;6055966;28;20038;-64
2022/06/16 06:01:06;;;;;;;7.83;3.20;;;;;;;16.74;62.91;101244.81;6050447;28;20030;-66
2022/06/16 06:04:01;;;;;;;7.10;3.42;;;;;;;16.55;64.23;101257.56;6051501;28;20783;-67
2022/06/16 06:06:57;;;;;;;7.97;3.53;;;;;;;16.52;64.65;101267.75;6050802;28;20068;-67
2022/06/16 06:16:37;;;;;;;5.75;3.20;;;;;;;16.41;64.67;101277.00;6062965;28;20034;-67
2022/06/16 06:19:32;;;;;;;7.30;3.40;;;;;;;16.35;64.13;101272.31;6052389;28;20036;-67
2022/06/16 06:22:28;;;;;;;6.35;3.00;;;;;;;16.18;64.89;101280.50;6049703;28;20026;-67
2022/06/16 06:25:23;;;;;;;6.77;3.10;;;;;;;16.39;64.43;101273.63;6052950;28;20038;-67
2022/06/16 06:28:20;;;;;;;6.45;3.17;;;;;;;16.63;63.47;101260.22;6054056;28;20048;-67
2022/06/16 06:31:17;;;;;;;4.80;2.63;;;;;;;16.76;62.66;101274.91;6050869;28;20513;-67
2022/06/16 06:34:12;;;;;;;6.53;2.95;;;;;;;16.60;62.39;101270.44;6054520;28;20037;-67
2022/06/16 06:37:08;;;;;;;6.83;3.17;;;;;;;16.93;61.40;101274.66;6063205;28;20033;-67
2022/06/16 06:40:04;;;;;;;8.73;3.47;;;;;;;17.69;60.01;101284.72;6051190;28;20038;-67
2022/06/16 06:43:00;;;;;;;6.60;2.88;;;;;;;18.17;57.91;101284.31;6051935;28;20036;-64
2022/06/16 06:45:55;;;;;;;4.82;3.25;;;;;;;18.24;57.87;101292.47;6064305;28;20512;-67
2022/06/16 06:48:50;;;;;;;5.68;3.00;;;;;;;18.18;57.45;101282.50;6057028;28;20095;-67
2022/06/16 06:51:46;;;;;;;7.80;3.27;;;;;;;18.79;56.19;101286.75;6058399;28;20026;-67
2022/06/16 06:54:45;;;;;;;5.75;3.33;;;;;;;18.98;54.48;101284.34;6050026;28;20281;-68
2022/06/16 06:57:41;;;;;;;5.45;2.78;;;;;;;19.22;55.22;101298.47;6049506;28;20501;-65
2022/06/16 07:00:36;;;;;;;6.20;2.90;;;;;;;19.53;53.31;101288.34;6053071;28;20045;-65
2022/06/16 07:03:32;;;;;;;5.82;3.20;;;;;;;19.41;54.46;101296.06;6049722;28;20426;-65
2022/06/16 07:06:27;;;;;;;8.55;3.15;;;;;;;19.25;54.67;101300.81;6049695;28;20026;-64
2022/06/16 07:09:22;;;;;;;10.73;3.55;;;;;;;18.76;54.91;101296.00;6061901;28;20034;-65
2022/06/16 07:12:18;;;;;;;8.65;3.72;;;;;;;18.88;55.67;101302.63;6057260;28;20534;-65
2022/06/16 07:15:14;;;;;;;7.53;3.25;;;;;;;18.46;56.45;101305.03;6054000;28;20426;-64
2022/06/16 07:18:09;;;;;;;7.40;3.53;;;;;;;18.73;56.32;101296.38;6050025;28;20025;-65
2022/06/16 07:21:05;;;;;;;8.40;3.20;;;;;;;18.84;55.28;101308.53;6053460;28;20025;-65
2022/06/16 07:24:00;;;;;;;7.30;2.90;;;;;;;18.44;56.31;101309.75;6053895;28;20474;-64
2022/06/16 07:26:56;;;;;;;9.80;3.13;;;;;;;18.13;57.19;101319.75;6050153;28;20437;-65
2022/06/16 07:29:52;;;;;;;4.30;2.60;;;;;;;18.85;55.56;101320.97;6049314;28;20525;-65
2022/06/16 07:32:47;;;;;;;6.45;3.03;;;;;;;18.97;54.65;101304.16;6048483;28;20041;-64
2022/06/16 07:35:44;;;;;;;3.83;2.22;;;;;;;19.73;53.77;101313.59;6049284;28;20033;-65
2022/06/16 07:38:39;;;;;;;7.03;2.83;;;;;;;19.99;50.87;101321.13;6048958;28;20120;-64
2022/06/16 07:41:35;;;;;;;4.73;2.47;;;;;;;20.12;51.42;101324.78;6048485;28;20030;-65
2022/06/16 07:44:30;;;;;;;6.65;2.50;;;;;;;19.92;51.43;101321.06;6049308;28;20037;-64
2022/06/16 07:47:26;;;;;;;5.43;2.07;;;;;;;20.84;49.26;101318.31;6048986;28;20571;-65
2022/06/16 07:50:21;;;;;;;6.13;2.63;;;;;;;20.39;50.97;101322.34;6048759;28;20038;-65
2022/06/16 07:53:16;;;;;;;6.90;2.30;;;;;;;20.41;49.79;101328.38;6049240;28;20029;-65
2022/06/16 07:56:12;;;;;;;6.10;2.10;;;;;;;20.93;48.20;101336.00;6051732;28;20037;-65
2022/06/16 07:59:07;;;;;;;4.15;2.00;;;;;;;21.01;47.47;101328.56;6063805;28;20108;-65
2022/06/16 08:02:03;;;;;;;3.73;2.27;;;;;;;21.68;46.44;101335.97;6052549;28;20065;-65
2022/06/16 08:04:58;;;;;;;7.18;2.40;;;;;;;21.29;46.87;101326.69;6061123;28;20465;-65
2022/06/16 08:07:54;;;;;;;3.80;2.20;;;;;;;21.00;47.35;101336.88;6055202;28;20038;-64
2022/06/16 08:10:51;;;;;;;4.47;2.13;;;;;;;20.84;48.48;101329.94;6057947;28;20064;-65
2022/06/16 08:13:46;;;;;;;4.43;2.30;;;;;;;21.23;47.07;101342.84;6053278;28;20327;-65
2022/06/16 08:16:43;;;;;;;8.50;2.40;;;;;;;21.10;49.18;101354.41;6052273;28;20466;-65
2022/06/16 08:19:39;;;;;;;6.78;2.42;;;;;;;21.24;46.32;101344.50;6043531;28;20109;-64
2022/06/16 08:22:35;;;;;;;6.47;1.73;;;;;;;20.90;46.96;101326.44;6054823;28;20033;-65
2022/06/16 08:25:30;;;;;;;8.23;2.30;;;;;;;21.67;45.86;101337.00;6060741;28;20068;-65
2022/06/16 08:28:25;;;;;;;4.35;2.10;;;;;;;21.77;45.86;101345.53;6070171;28;20037;-65
2022/06/16 08:31:23;;;;;;;6.77;1.93;;;;;;;21.63;46.06;101346.56;6064232;28;20033;-65
2022/06/16 08:34:18;;;;;;;6.53;1.90;;;;;;;22.08;44.91;101345.03;6054159;28;20407;-65
2022/06/16 08:37:14;;;;;;;4.97;1.92;;;;;;;22.17;44.37;101352.75;6057191;28;20037;-65
2022/06/16 08:40:10;;;;;;;3.50;1.70;;;;;;;22.04;44.07;101343.78;6061104;28;20060;-65
2022/06/16 08:43:23;;;;;;;5.07;2.40;;;;;;;21.99;44.47;101347.06;6057485;28;20133;-65
2022/06/16 08:46:19;;;;;;;5.65;2.35;;;;;;;21.63;46.10;101343.84;6052153;28;20037;-65
2022/06/16 08:49:48;;;;;;;5.25;2.00;;;;;;;21.98;44.67;101352.69;6053003;28;20029;-65
2022/06/16 08:53:15;;;;;;;3.97;2.40;;;;;;;22.66;42.84;101352.38;6045010;28;20049;-65
2022/06/16 08:56:19;;;;;;;7.32;2.17;;;;;;;22.87;42.74;101340.47;6052314;28;20473;-65
2022/06/16 08:59:51;;;;;;;6.80;2.33;;;;;;;23.32;42.34;101336.78;6051810;28;20413;-65
2022/06/16 09:02:52;;;;;;;4.10;2.05;;;;;;;22.83;41.78;101336.53;6017772;28;20045;-65
2022/06/16 09:06:06;;;;;;;4.15;2.17;;;;;;;22.62;41.90;101347.53;6052175;28;20030;-65
2022/06/16 09:09:15;;;;;;;5.20;2.22;;;;;;;22.21;43.28;101343.16;6051216;28;20132;-65
2022/06/16 09:12:36;;;;;;;5.35;1.85;;;;;;;22.62;43.37;101355.66;6050650;28;20173;-65
2022/06/16 09:15:49;;;;;;;6.00;2.10;;;;;;;22.74;42.59;101362.97;6052540;28;20508;-65
2022/06/16 09:19:12;;;;;;;4.18;2.33;;;;;;;22.86;41.90;101361.28;6052245;28;20044;-66
2022/06/16 09:22:27;;;;;;;4.47;2.10;;;;;;;23.03;42.50;101356.25;6051737;28;20049;-65
2022/06/16 09:25:44;;;;;;;6.40;2.25;;;;;;;23.04;42.25;101355.22;6050878;28;20068;-65
2022/06/16 09:29:01;;;;;;;6.60;2.45;;;;;;;22.89;42.99;101357.31;6074330;28;20037;-65
2022/06/16 09:32:03;;;;;;;5.03;2.65;;;;;;;23.21;41.37;101356.41;6053521;28;20045;-65
2022/06/16 09:35:03;;;;;;;4.60;2.25;;;;;;;22.76;42.62;101357.34;6050263;28;20057;-65
2022/06/16 09:38:03;;;;;;;8.23;2.83;;;;;;;22.95;41.63;101361.88;6050049;28;20365;-65
2022/06/16 09:42:31;;;;;;;5.07;2.22;;;;;;;23.25;40.88;101354.09;6050954;28;20129;-65
2022/06/16 09:44:32;;;;;;;6.18;2.30;;;;;;;23.18;41.87;101364.13;6054956;28;20042;-65
2022/06/16 09:47:38;;;;;;;3.78;2.10;;;;;;;23.52;42.28;101343.00;6050134;28;20113;-65
2022/06/16 09:50:46;;;;;;;5.88;2.33;;;;;;;23.41;41.21;101351.78;6048934;28;20034;-65
2022/06/16 09:53:58;;;;;;;4.53;2.90;;;;;;;23.74;39.60;101345.38;6066827;28;20038;-65
2022/06/16 09:57:00;;;;;;;5.90;2.63;;;;;;;23.72;40.12;101353.75;6051211;28;20030;-65
2022/06/16 10:00:12;;;;;;;9.07;2.88;;;;;;;23.59;39.17;101351.91;6051830;28;20123;-65
2022/06/16 10:03:50;;;;;;;7.07;2.00;;;;;;;23.61;40.96;101367.97;6050823;28;20061;-65
2022/06/16 10:06:54;;;;;;;5.38;2.10;;;;;;;23.47;42.01;101360.94;6042477;28;20069;-65
2022/06/16 10:09:59;;;;;;;4.32;2.30;;;;;;;22.39;42.01;101362.28;6050690;28;20109;-65
2022/06/16 10:13:09;;;;;;;6.75;2.42;;;;;;;22.80;42.95;101362.09;6050580;28;20041;-65
2022/06/16 10:16:14;;;;;;;3.80;2.45;;;;;;;23.57;39.97;101364.84;6050425;28;20046;-66
2022/06/16 10:19:10;;;;;;;6.00;2.65;;;;;;;23.87;38.89;101359.69;6067979;28;20091;-65
2022/06/16 10:22:06;;;;;;;4.53;1.83;;;;;;;24.34;39.14;101369.22;6053949;28;20493;-65
2022/06/16 10:25:05;;;;;;;7.32;2.45;;;;;;;24.10;39.20;101378.16;6050745;28;20109;-68
2022/06/16 10:28:18;;;;;;;5.22;2.22;;;;;;;24.17;38.62;101378.94;6050616;28;20465;-65
2022/06/16 10:31:41;;;;;;;5.05;1.83;;;;;;;24.46;37.45;101383.72;6053135;28;20119;-65
2022/06/16 10:34:39;;;;;;;8.30;2.10;;;;;;;24.06;37.66;101372.28;6050547;28;20034;-66
2022/06/16 10:37:39;;;;;;;4.68;2.53;;;;;;;23.72;38.98;101369.16;6052085;28;20037;-66
2022/06/16 10:40:40;;;;;;;6.03;2.70;;;;;;;23.45;40.69;101385.53;6051719;28;20044;-65
2022/06/16 10:43:39;;;;;;;4.80;2.20;;;;;;;23.35;39.32;101378.84;6049556;28;20524;-66
2022/06/16 10:46:36;;;;;;;4.13;1.70;;;;;;;24.07;38.84;101378.56;6057174;28;20094;-66
2022/06/16 10:49:34;;;;;;;4.35;2.30;;;;;;;24.30;38.33;101389.66;6053385;28;20436;-65
2022/06/16 10:52:33;;;;;;;3.97;1.92;;;;;;;24.40;37.58;101373.78;6048006;28;20065;-65
2022/06/16 10:55:36;;;;;;;3.67;2.20;;;;;;;24.79;36.84;101383.47;6064464;28;20038;-65
2022/06/16 10:58:33;;;;;;;6.45;2.33;;;;;;;24.14;37.48;101382.06;6053100;28;20389;-66
2022/06/16 11:01:36;;;;;;;7.05;2.20;;;;;;;24.39;36.40;101391.06;6054656;28;20045;-66
2022/06/16 11:04:37;;;;;;;4.72;2.20;;;;;;;24.10;38.66;101394.41;6051393;28;20047;-66
2022/06/16 11:07:38;;;;;;;3.70;2.08;;;;;;;24.22;37.68;101387.22;6049648;28;20033;-66
2022/06/16 11:10:37;;;;;;;8.73;2.45;;;;;;;23.95;38.83;101383.81;6049057;28;20038;-66
2022/06/16 11:13:36;;;;;;;3.50;1.90;;;;;;;24.08;37.97;101381.03;6049637;28;20045;-66
2022/06/16 11:16:37;;;;;;;4.63;2.13;;;;;;;24.06;37.16;101382.28;6050035;28;20030;-66
2022/06/16 11:19:41;;;;;;;6.22;2.17;;;;;;;24.51;36.89;101381.19;6052908;28;20036;-66
2022/06/16 11:22:40;;;;;;;4.30;1.80;;;;;;;24.74;37.35;101386.81;6049660;28;20106;-66
2022/06/16 11:25:36;;;;;;;6.13;2.15;;;;;;;23.72;38.43;101382.72;6049301;28;20079;-66
2022/06/16 11:28:41;;;;;;;3.92;2.05;;;;;;;23.95;38.49;101380.28;6050394;28;20042;-66
2022/06/16 11:31:44;;;;;;;5.28;1.67;;;;;;;24.71;39.17;101392.69;6061913;28;20428;-66
2022/06/16 11:34:41;;;;;;;2.92;1.80;;;;;;;24.94;37.31;101391.28;6056496;28;20038;-66
2022/06/16 11:38:00;;;;;;;5.60;2.45;;;;;;;24.85;37.74;101388.84;6055653;28;20477;-66
2022/06/16 11:41:01;;;;;;;5.50;1.77;;;;;;;24.27;37.28;101409.09;6046514;28;20041;-66
2022/06/16 11:44:02;;;;;;;3.70;1.65;;;;;;;24.42;36.12;101393.34;6049521;28;20037;-66
2022/06/16 11:47:18;;;;;;;8.93;2.10;;;;;;;25.24;35.81;101398.47;6049442;28;20042;-66
2022/06/16 11:50:28;;;;;;;4.25;1.88;;;;;;;24.74;35.26;101403.09;6063922;28;20081;-65
2022/06/16 11:53:42;;;;;;;5.15;1.63;;;;;;;25.07;36.74;101391.97;6065766;28;20038;-67
2022/06/16 11:57:02;;;;;;;5.43;1.85;;;;;;;25.48;35.58;101396.78;6064758;28;20038;-66
2022/06/16 12:00:27;;;;;;;2.67;1.60;;;;;;;24.94;35.39;101402.13;6036530;28;20034;-66
2022/06/16 12:03:54;;;;;;;4.40;1.80;;;;;;;24.40;35.57;101395.47;6049581;28;20108;-66
2022/06/16 12:07:01;;;;;;;3.85;1.70;;;;;;;24.83;35.69;101399.09;6048979;28;20398;-65
2022/06/16 12:10:14;;;;;;;6.03;1.63;;;;;;;24.97;36.00;101401.69;6065943;28;20038;-66
2022/06/16 12:13:17;;;;;;;4.22;2.20;;;;;;;25.66;34.34;101404.91;6049836;28;20052;-66
2022/06/16 12:16:33;;;;;;;4.10;1.73;;;;;;;25.23;34.10;101399.53;6065040;28;20033;-66
2022/06/16 12:19:48;;;;;;;3.03;1.52;;;;;;;25.57;32.92;101394.56;6076959;28;20396;-66
2022/06/16 12:22:55;;;;;;;9.95;2.20;;;;;;;26.04;33.14;101401.88;6068905;28;20411;-67
2022/06/16 12:25:58;;;;;;;3.95;1.50;;;;;;;26.17;33.36;101407.19;6056391;28;20064;-66
2022/06/16 12:29:28;;;;;;;6.68;1.80;;;;;;;26.36;33.06;101402.50;6071808;28;20041;-66
2022/06/16 12:32:36;;;;;;;4.32;1.60;;;;;;;26.17;34.21;101399.03;6058724;28;20065;-66
2022/06/16 12:35:41;;;;;;;3.60;1.70;;;;;;;25.81;34.45;101401.78;6049139;28;20053;-66
2022/06/16 12:38:45;;;;;;;4.20;1.80;;;;;;;25.04;34.81;101403.28;6049010;28;20064;-66
2022/06/16 12:41:46;;;;;;;5.13;1.90;;;;;;;24.66;35.50;101395.25;6052309;28;20026;-66
2022/06/16 12:44:49;;;;;;;6.30;1.95;;;;;;;25.02;36.30;101393.69;6089421;28;20038;-65
2022/06/16 12:47:49;;;;;;;4.15;1.83;;;;;;;24.81;36.62;101389.53;6074632;28;20029;-66
2022/06/16 12:50:57;;;;;;;5.78;1.98;;;;;;;25.48;35.10;101399.47;6056939;28;20037;-65
2022/06/16 12:54:00;;;;;;;2.85;1.70;;;;;;;25.18;35.34;101403.97;6075491;28;20029;-65
2022/06/16 12:57:02;;;;;;;5.05;2.00;;;;;;;25.19;34.95;101400.22;6068050;28;20033;-66
2022/06/16 13:00:00;;;;;;;4.30;1.70;;;;;;;25.67;34.40;101408.44;6053940;28;20582;-66
2022/06/16 13:03:05;;;;;;;4.28;1.70;;;;;;;26.19;33.00;101412.38;6051464;28;20045;-66
2022/06/16 13:06:00;;;;;;;2.45;1.42;;;;;;;26.00;32.70;101419.72;6067931;28;20041;-66
2022/06/16 13:09:01;;;;;;;6.82;1.30;;;;;;;26.03;33.23;101436.41;6057513;28;20041;-66
2022/06/16 13:12:01;;;;;;;2.67;1.13;;;;;;;26.38;32.92;101430.28;6044112;28;20044;-65
2022/06/16 13:15:09;;;;;;;4.00;1.00;;;;;;;25.29;32.77;101436.66;6052254;28;20038;-66
2022/06/16 13:18:18;;;;;;;4.03;1.20;;;;;;;24.89;33.71;101437.25;6051309;28;20034;-66
2022/06/16 13:21:23;;;;;;;1.90;1.00;;;;;;;24.76;34.33;101435.44;6051600;28;20064;-66
2022/06/16 13:24:43;;;;;;;2.33;1.20;;;;;;;25.27;32.75;101435.22;6051239;28;20417;-66
2022/06/16 13:27:39;;;;;;;4.63;1.33;;;;;;;25.54;32.48;101444.78;6043742;28;20049;-66
2022/06/16 13:30:39;;;;;;;2.00;1.38;;;;;;;24.69;31.83;101426.53;6058053;28;20030;-66
2022/06/16 13:33:52;;;;;;;2.47;1.30;;;;;;;25.26;33.67;101428.94;6056145;28;20469;-65
2022/06/16 13:36:54;;;;;;;1.88;1.30;;;;;;;25.17;32.63;101429.44;6052881;28;20044;-66
2022/06/16 13:40:15;;;;;;;4.22;1.63;;;;;;;25.10;32.74;101440.38;6051806;28;20042;-66
2022/06/16 13:43:11;;;;;;;4.45;1.25;;;;;;;25.71;31.39;101440.38;6046246;28;20561;-66
2022/06/16 13:46:06;;;;;;;4.10;1.67;;;;;;;25.99;31.36;101431.66;6052515;28;20029;-66
2022/06/16 13:49:05;;;;;;;3.97;1.23;;;;;;;26.17;31.21;101425.38;6061603;28;20041;-66
2022/06/16 13:52:17;;;;;;;3.25;1.60;;;;;;;26.84;30.32;101422.25;6051025;28;20273;-66
2022/06/16 13:55:23;;;;;;;;;;;;;;;26.89;29.70;101427.81;6050941;28;20033;-66
2022/06/16 13:58:33;;;;;;;4.22;1.10;;;;;;;27.22;28.96;101420.94;6073893;28;19921;-66
2022/06/16 14:01:30;;;;;;;4.75;1.30;;;;;;;27.41;28.24;101434.22;6061823;28;20049;-66
2022/06/16 14:04:26;;;;;;;2.65;1.15;;;;;;;27.66;28.02;101433.94;6063811;28;20045;-66
2022/06/16 14:07:21;;;;;;;3.20;1.10;;;;;;;27.23;28.64;101441.69;6058745;28;20045;-66
2022/06/16 14:10:29;;;;;;;2.60;1.10;;;;;;;27.76;28.01;101437.69;6049571;28;20034;-66
2022/06/16 14:13:39;;;;;;;3.28;1.00;;;;;;;27.23;27.23;101430.78;6050952;28;20057;-66
2022/06/16 14:16:38;;;;;;;1.58;0.88;;;;;;;27.26;27.19;101422.13;6058348;28;20430;-67